sensor_id;sensor_type;location;lat;lon;timestamp;temperature;humidity
22006;DHT22;11167;46.988;15.470;2024-01-06T00:01:39;6.20;86.80
22006;DHT22;11167;46.988;15.470;2024-01-06T00:03:41;6.30;86.70
22006;DHT22;11167;46.988;15.470;2024-01-06T00:05:42;6.20;86.70
22006;DHT22;11167;46.988;15.470;2024-01-06T00:07:43;6.20;86.70
22006;DHT22;11167;46.988;15.470;2024-01-06T00:09:45;6.20;86.70
22006;DHT22;11167;46.988;15.470;2024-01-06T00:11:46;6.20;86.80
22006;DHT22;11167;46.988;15.470;2024-01-06T00:13:47;6.20;86.70
22006;DHT22;11167;46.988;15.470;2024-01-06T00:15:48;6.30;86.90
22006;DHT22;11167;46.988;15.470;2024-01-06T00:17:50;6.20;86.80
22006;DHT22;11167;46.988;15.470;2024-01-06T00:19:51;6.20;86.80
22006;DHT22;11167;46.988;15.470;2024-01-06T00:21:52;6.30;87.00
22006;DHT22;11167;46.988;15.470;2024-01-06T00:23:53;6.20;86.70
22006;DHT22;11167;46.988;15.470;2024-01-06T00:25:56;6.20;86.80
22006;DHT22;11167;46.988;15.470;2024-01-06T00:27:57;6.20;86.70
22006;DHT22;11167;46.988;15.470;2024-01-06T00:29:58;6.20;86.80
22006;DHT22;11167;46.988;15.470;2024-01-06T00:32:01;6.20;86.80
22006;DHT22;11167;46.988;15.470;2024-01-06T00:34:02;6.20;86.80
22006;DHT22;11167;46.988;15.470;2024-01-06T00:36:04;6.20;86.80
22006;DHT22;11167;46.988;15.470;2024-01-06T00:38:07;6.20;86.70
22006;DHT22;11167;46.988;15.470;2024-01-06T00:40:09;6.20;86.70
22006;DHT22;11167;46.988;15.470;2024-01-06T00:42:11;6.30;86.80
22006;DHT22;11167;46.988;15.470;2024-01-06T00:44:12;6.20;86.70
22006;DHT22;11167;46.988;15.470;2024-01-06T00:46:14;6.20;86.70
22006;DHT22;11167;46.988;15.470;2024-01-06T00:48:15;6.20;86.90
22006;DHT22;11167;46.988;15.470;2024-01-06T00:50:17;6.30;86.90
22006;DHT22;11167;46.988;15.470;2024-01-06T00:52:20;6.20;86.80
22006;DHT22;11167;46.988;15.470;2024-01-06T00:54:21;6.30;86.80
22006;DHT22;11167;46.988;15.470;2024-01-06T00:56:22;6.20;86.70
22006;DHT22;11167;46.988;15.470;2024-01-06T00:58:23;6.30;86.90
22006;DHT22;11167;46.988;15.470;2024-01-06T01:00:25;6.30;86.90
22006;DHT22;11167;46.988;15.470;2024-01-06T01:02:28;6.30;86.90
22006;DHT22;11167;46.988;15.470;2024-01-06T01:04:29;6.20;86.70
22006;DHT22;11167;46.988;15.470;2024-01-06T01:06:30;6.30;86.90
22006;DHT22;11167;46.988;15.470;2024-01-06T01:08:31;6.30;86.90
22006;DHT22;11167;46.988;15.470;2024-01-06T01:10:32;6.30;86.90
22006;DHT22;11167;46.988;15.470;2024-01-06T01:12:33;6.30;86.90
22006;DHT22;11167;46.988;15.470;2024-01-06T01:14:35;6.30;86.90
22006;DHT22;11167;46.988;15.470;2024-01-06T01:16:36;6.30;86.90
22006;DHT22;11167;46.988;15.470;2024-01-06T01:18:37;6.30;86.90
22006;DHT22;11167;46.988;15.470;2024-01-06T01:20:39;6.30;86.90
22006;DHT22;11167;46.988;15.470;2024-01-06T01:22:42;6.30;86.90
22006;DHT22;11167;46.988;15.470;2024-01-06T01:24:43;6.30;86.90
22006;DHT22;11167;46.988;15.470;2024-01-06T01:26:44;6.30;86.90
22006;DHT22;11167;46.988;15.470;2024-01-06T01:28:45;6.30;86.90
22006;DHT22;11167;46.988;15.470;2024-01-06T01:30:46;6.30;86.90
22006;DHT22;11167;46.988;15.470;2024-01-06T01:32:47;6.30;87.00
22006;DHT22;11167;46.988;15.470;2024-01-06T01:34:48;6.30;87.00
22006;DHT22;11167;46.988;15.470;2024-01-06T01:36:50;6.30;86.90
22006;DHT22;11167;46.988;15.470;2024-01-06T01:38:52;6.30;86.90
22006;DHT22;11167;46.988;15.470;2024-01-06T01:40:53;6.30;86.60
22006;DHT22;11167;46.988;15.470;2024-01-06T01:42:54;6.30;87.00
22006;DHT22;11167;46.988;15.470;2024-01-06T01:44:55;6.30;87.00
22006;DHT22;11167;46.988;15.470;2024-01-06T01:46:56;6.30;87.00
22006;DHT22;11167;46.988;15.470;2024-01-06T01:48:59;6.30;86.90
22006;DHT22;11167;46.988;15.470;2024-01-06T01:51:01;6.30;87.00
22006;DHT22;11167;46.988;15.470;2024-01-06T01:53:03;6.30;86.90
22006;DHT22;11167;46.988;15.470;2024-01-06T01:55:05;6.30;86.90
22006;DHT22;11167;46.988;15.470;2024-01-06T01:57:07;6.30;86.90
22006;DHT22;11167;46.988;15.470;2024-01-06T01:59:12;6.30;86.90
22006;DHT22;11167;46.988;15.470;2024-01-06T02:01:15;6.30;87.00
22006;DHT22;11167;46.988;15.470;2024-01-06T02:03:17;6.30;86.90
22006;DHT22;11167;46.988;15.470;2024-01-06T02:05:18;6.30;86.90
22006;DHT22;11167;46.988;15.470;2024-01-06T02:07:19;6.30;87.70
22006;DHT22;11167;46.988;15.470;2024-01-06T02:09:21;6.30;87.00
22006;DHT22;11167;46.988;15.470;2024-01-06T02:11:24;6.30;87.00
22006;DHT22;11167;46.988;15.470;2024-01-06T02:13:33;6.30;86.90
22006;DHT22;11167;46.988;15.470;2024-01-06T02:15:35;6.30;87.00
22006;DHT22;11167;46.988;15.470;2024-01-06T02:17:37;6.30;86.90
22006;DHT22;11167;46.988;15.470;2024-01-06T02:19:40;6.30;86.90
22006;DHT22;11167;46.988;15.470;2024-01-06T02:21:42;6.30;86.90
22006;DHT22;11167;46.988;15.470;2024-01-06T02:23:44;6.30;87.10
22006;DHT22;11167;46.988;15.470;2024-01-06T02:25:45;6.30;86.90
22006;DHT22;11167;46.988;15.470;2024-01-06T02:27:46;6.30;87.00
22006;DHT22;11167;46.988;15.470;2024-01-06T02:29:47;6.30;87.00
22006;DHT22;11167;46.988;15.470;2024-01-06T02:31:49;6.30;87.10
22006;DHT22;11167;46.988;15.470;2024-01-06T02:33:50;6.30;87.10
22006;DHT22;11167;46.988;15.470;2024-01-06T02:35:51;6.30;87.00
22006;DHT22;11167;46.988;15.470;2024-01-06T02:37:53;6.30;87.10
22006;DHT22;11167;46.988;15.470;2024-01-06T02:39:54;6.30;87.00
22006;DHT22;11167;46.988;15.470;2024-01-06T02:41:55;6.30;87.10
22006;DHT22;11167;46.988;15.470;2024-01-06T02:43:57;6.30;87.10
22006;DHT22;11167;46.988;15.470;2024-01-06T02:45:58;6.30;87.10
22006;DHT22;11167;46.988;15.470;2024-01-06T02:47:59;6.30;87.00
22006;DHT22;11167;46.988;15.470;2024-01-06T02:50:00;6.30;87.10
22006;DHT22;11167;46.988;15.470;2024-01-06T02:52:01;6.30;87.10
22006;DHT22;11167;46.988;15.470;2024-01-06T02:54:03;6.30;87.10
22006;DHT22;11167;46.988;15.470;2024-01-06T02:56:13;6.30;87.10
22006;DHT22;11167;46.988;15.470;2024-01-06T02:58:14;6.30;87.00
22006;DHT22;11167;46.988;15.470;2024-01-06T03:00:15;6.40;87.10
22006;DHT22;11167;46.988;15.470;2024-01-06T03:02:17;6.30;87.00
22006;DHT22;11167;46.988;15.470;2024-01-06T03:04:18;6.40;87.10
22006;DHT22;11167;46.988;15.470;2024-01-06T03:06:19;6.30;87.10
22006;DHT22;11167;46.988;15.470;2024-01-06T03:08:20;6.30;87.10
22006;DHT22;11167;46.988;15.470;2024-01-06T03:10:24;6.30;87.10
22006;DHT22;11167;46.988;15.470;2024-01-06T03:12:25;6.30;87.00
22006;DHT22;11167;46.988;15.470;2024-01-06T03:14:26;6.30;87.10
22006;DHT22;11167;46.988;15.470;2024-01-06T03:16:27;6.30;87.10
22006;DHT22;11167;46.988;15.470;2024-01-06T03:18:29;6.30;87.00
22006;DHT22;11167;46.988;15.470;2024-01-06T03:20:30;6.30;87.70
22006;DHT22;11167;46.988;15.470;2024-01-06T03:22:31;6.30;87.10
22006;DHT22;11167;46.988;15.470;2024-01-06T03:24:32;6.30;87.90
22006;DHT22;11167;46.988;15.470;2024-01-06T03:26:33;6.40;87.20
22006;DHT22;11167;46.988;15.470;2024-01-06T03:28:34;6.40;87.20
22006;DHT22;11167;46.988;15.470;2024-01-06T03:30:35;6.40;87.10
22006;DHT22;11167;46.988;15.470;2024-01-06T03:32:37;6.40;87.20
22006;DHT22;11167;46.988;15.470;2024-01-06T03:34:38;6.40;87.20
22006;DHT22;11167;46.988;15.470;2024-01-06T03:36:40;6.40;87.20
22006;DHT22;11167;46.988;15.470;2024-01-06T03:38:41;6.40;87.10
22006;DHT22;11167;46.988;15.470;2024-01-06T03:40:42;6.40;87.10
22006;DHT22;11167;46.988;15.470;2024-01-06T03:42:45;6.40;87.20
22006;DHT22;11167;46.988;15.470;2024-01-06T03:44:46;6.40;87.10
22006;DHT22;11167;46.988;15.470;2024-01-06T03:46:47;6.40;87.20
22006;DHT22;11167;46.988;15.470;2024-01-06T03:48:48;6.40;87.20
22006;DHT22;11167;46.988;15.470;2024-01-06T03:50:49;6.40;87.20
22006;DHT22;11167;46.988;15.470;2024-01-06T03:52:51;6.40;86.80
22006;DHT22;11167;46.988;15.470;2024-01-06T03:54:52;6.40;87.20
22006;DHT22;11167;46.988;15.470;2024-01-06T03:56:53;6.40;87.20
22006;DHT22;11167;46.988;15.470;2024-01-06T03:58:55;6.40;87.10
22006;DHT22;11167;46.988;15.470;2024-01-06T04:00:57;6.40;87.20
22006;DHT22;11167;46.988;15.470;2024-01-06T04:02:58;6.40;87.10
22006;DHT22;11167;46.988;15.470;2024-01-06T04:05:00;6.40;87.20
22006;DHT22;11167;46.988;15.470;2024-01-06T04:07:01;6.40;87.20
22006;DHT22;11167;46.988;15.470;2024-01-06T04:09:02;6.40;87.10
22006;DHT22;11167;46.988;15.470;2024-01-06T04:11:04;6.40;87.10
22006;DHT22;11167;46.988;15.470;2024-01-06T04:13:05;6.40;87.30
22006;DHT22;11167;46.988;15.470;2024-01-06T04:15:07;6.40;87.20
22006;DHT22;11167;46.988;15.470;2024-01-06T04:17:08;6.40;87.30
22006;DHT22;11167;46.988;15.470;2024-01-06T04:19:10;6.40;87.20
22006;DHT22;11167;46.988;15.470;2024-01-06T04:21:12;6.40;87.30
22006;DHT22;11167;46.988;15.470;2024-01-06T04:23:14;6.40;87.20
22006;DHT22;11167;46.988;15.470;2024-01-06T04:25:15;6.40;87.30
22006;DHT22;11167;46.988;15.470;2024-01-06T04:27:16;6.40;87.30
22006;DHT22;11167;46.988;15.470;2024-01-06T04:29:17;6.40;87.30
22006;DHT22;11167;46.988;15.470;2024-01-06T04:31:18;6.40;87.10
22006;DHT22;11167;46.988;15.470;2024-01-06T04:33:19;6.40;87.20
22006;DHT22;11167;46.988;15.470;2024-01-06T04:35:20;6.40;87.30
22006;DHT22;11167;46.988;15.470;2024-01-06T04:37:22;6.40;87.30
22006;DHT22;11167;46.988;15.470;2024-01-06T04:39:23;6.40;87.30
22006;DHT22;11167;46.988;15.470;2024-01-06T04:41:24;6.40;87.30
22006;DHT22;11167;46.988;15.470;2024-01-06T04:43:26;6.40;87.30
22006;DHT22;11167;46.988;15.470;2024-01-06T04:45:27;6.40;87.50
22006;DHT22;11167;46.988;15.470;2024-01-06T04:47:28;6.40;87.20
22006;DHT22;11167;46.988;15.470;2024-01-06T04:49:31;6.40;87.30
22006;DHT22;11167;46.988;15.470;2024-01-06T04:51:32;6.40;87.20
22006;DHT22;11167;46.988;15.470;2024-01-06T04:53:34;6.40;87.30
22006;DHT22;11167;46.988;15.470;2024-01-06T04:55:35;6.40;87.20
22006;DHT22;11167;46.988;15.470;2024-01-06T04:57:37;6.40;87.20
22006;DHT22;11167;46.988;15.470;2024-01-06T04:59:38;6.40;87.10
22006;DHT22;11167;46.988;15.470;2024-01-06T05:01:39;6.40;87.30
22006;DHT22;11167;46.988;15.470;2024-01-06T05:03:44;6.40;87.40
22006;DHT22;11167;46.988;15.470;2024-01-06T05:05:45;6.40;87.30
22006;DHT22;11167;46.988;15.470;2024-01-06T05:07:46;6.40;87.30
22006;DHT22;11167;46.988;15.470;2024-01-06T05:09:48;6.40;87.30
22006;DHT22;11167;46.988;15.470;2024-01-06T05:11:49;6.40;87.30
22006;DHT22;11167;46.988;15.470;2024-01-06T05:13:50;6.40;87.10
22006;DHT22;11167;46.988;15.470;2024-01-06T05:15:51;6.40;87.30
22006;DHT22;11167;46.988;15.470;2024-01-06T05:17:53;6.40;87.30
22006;DHT22;11167;46.988;15.470;2024-01-06T05:19:55;6.40;87.30
22006;DHT22;11167;46.988;15.470;2024-01-06T05:21:56;6.40;87.20
22006;DHT22;11167;46.988;15.470;2024-01-06T05:23:59;6.40;87.20
22006;DHT22;11167;46.988;15.470;2024-01-06T05:26:03;6.40;87.20
22006;DHT22;11167;46.988;15.470;2024-01-06T05:28:05;6.40;87.20
22006;DHT22;11167;46.988;15.470;2024-01-06T05:30:07;6.40;87.20
22006;DHT22;11167;46.988;15.470;2024-01-06T05:32:09;6.40;87.30
22006;DHT22;11167;46.988;15.470;2024-01-06T05:34:10;6.40;87.30
22006;DHT22;11167;46.988;15.470;2024-01-06T05:36:11;6.40;87.30
22006;DHT22;11167;46.988;15.470;2024-01-06T05:38:12;6.40;87.30
22006;DHT22;11167;46.988;15.470;2024-01-06T05:40:13;6.40;87.20
22006;DHT22;11167;46.988;15.470;2024-01-06T05:42:15;6.40;88.10
22006;DHT22;11167;46.988;15.470;2024-01-06T05:44:16;6.40;87.20
22006;DHT22;11167;46.988;15.470;2024-01-06T05:46:24;6.40;87.30
22006;DHT22;11167;46.988;15.470;2024-01-06T05:48:25;6.40;87.30
22006;DHT22;11167;46.988;15.470;2024-01-06T05:50:26;6.40;87.20
22006;DHT22;11167;46.988;15.470;2024-01-06T05:52:27;6.40;87.30
22006;DHT22;11167;46.988;15.470;2024-01-06T05:54:29;6.40;87.30
22006;DHT22;11167;46.988;15.470;2024-01-06T05:56:33;6.40;87.30
22006;DHT22;11167;46.988;15.470;2024-01-06T05:58:35;6.40;87.20
22006;DHT22;11167;46.988;15.470;2024-01-06T06:00:44;6.40;87.20
22006;DHT22;11167;46.988;15.470;2024-01-06T06:02:47;6.40;87.20
22006;DHT22;11167;46.988;15.470;2024-01-06T06:04:49;6.50;87.30
22006;DHT22;11167;46.988;15.470;2024-01-06T06:06:50;6.40;87.30
22006;DHT22;11167;46.988;15.470;2024-01-06T06:08:51;6.40;88.10
22006;DHT22;11167;46.988;15.470;2024-01-06T06:10:52;6.40;87.30
22006;DHT22;11167;46.988;15.470;2024-01-06T06:13:05;6.40;87.30
22006;DHT22;11167;46.988;15.470;2024-01-06T06:15:07;6.40;87.20
22006;DHT22;11167;46.988;15.470;2024-01-06T06:17:08;6.40;87.30
22006;DHT22;11167;46.988;15.470;2024-01-06T06:19:09;6.40;87.30
22006;DHT22;11167;46.988;15.470;2024-01-06T06:21:10;6.40;87.30
22006;DHT22;11167;46.988;15.470;2024-01-06T06:23:11;6.50;87.30
22006;DHT22;11167;46.988;15.470;2024-01-06T06:25:13;6.40;87.30
22006;DHT22;11167;46.988;15.470;2024-01-06T06:27:15;6.50;87.40
22006;DHT22;11167;46.988;15.470;2024-01-06T06:29:16;6.50;87.30
22006;DHT22;11167;46.988;15.470;2024-01-06T06:31:18;6.50;87.30
22006;DHT22;11167;46.988;15.470;2024-01-06T06:33:19;6.50;88.30
22006;DHT22;11167;46.988;15.470;2024-01-06T06:35:22;6.50;87.40
22006;DHT22;11167;46.988;15.470;2024-01-06T06:37:24;6.50;88.20
22006;DHT22;11167;46.988;15.470;2024-01-06T06:39:25;6.50;87.30
22006;DHT22;11167;46.988;15.470;2024-01-06T06:41:27;6.50;87.40
22006;DHT22;11167;46.988;15.470;2024-01-06T06:43:29;6.50;87.30
22006;DHT22;11167;46.988;15.470;2024-01-06T06:45:30;6.50;87.40
22006;DHT22;11167;46.988;15.470;2024-01-06T06:47:31;6.50;87.40
22006;DHT22;11167;46.988;15.470;2024-01-06T06:49:32;6.50;87.40
22006;DHT22;11167;46.988;15.470;2024-01-06T06:51:33;6.50;87.50
22006;DHT22;11167;46.988;15.470;2024-01-06T06:53:34;6.50;87.30
22006;DHT22;11167;46.988;15.470;2024-01-06T06:55:36;6.50;87.40
22006;DHT22;11167;46.988;15.470;2024-01-06T06:57:38;6.50;87.40
22006;DHT22;11167;46.988;15.470;2024-01-06T06:59:40;6.50;87.30
22006;DHT22;11167;46.988;15.470;2024-01-06T07:01:41;6.50;87.30
22006;DHT22;11167;46.988;15.470;2024-01-06T07:03:42;6.50;87.50
22006;DHT22;11167;46.988;15.470;2024-01-06T07:05:44;6.50;87.40
22006;DHT22;11167;46.988;15.470;2024-01-06T07:07:45;6.50;87.30
22006;DHT22;11167;46.988;15.470;2024-01-06T07:09:47;6.50;87.50
22006;DHT22;11167;46.988;15.470;2024-01-06T07:11:48;6.50;87.40
22006;DHT22;11167;46.988;15.470;2024-01-06T07:13:50;6.50;87.40
22006;DHT22;11167;46.988;15.470;2024-01-06T07:15:51;6.50;87.30
22006;DHT22;11167;46.988;15.470;2024-01-06T07:17:52;6.50;87.50
22006;DHT22;11167;46.988;15.470;2024-01-06T07:19:53;6.50;87.50
22006;DHT22;11167;46.988;15.470;2024-01-06T07:21:54;6.50;87.50
22006;DHT22;11167;46.988;15.470;2024-01-06T07:23:56;6.50;87.50
22006;DHT22;11167;46.988;15.470;2024-01-06T07:25:57;6.50;87.40
22006;DHT22;11167;46.988;15.470;2024-01-06T07:27:59;6.50;87.50
22006;DHT22;11167;46.988;15.470;2024-01-06T07:30:00;6.50;88.30
22006;DHT22;11167;46.988;15.470;2024-01-06T07:32:01;6.50;87.40
22006;DHT22;11167;46.988;15.470;2024-01-06T07:34:03;6.50;87.50
22006;DHT22;11167;46.988;15.470;2024-01-06T07:36:05;6.50;87.40
22006;DHT22;11167;46.988;15.470;2024-01-06T07:38:06;6.50;87.40
22006;DHT22;11167;46.988;15.470;2024-01-06T07:40:11;6.50;87.40
22006;DHT22;11167;46.988;15.470;2024-01-06T07:42:14;6.50;87.50
22006;DHT22;11167;46.988;15.470;2024-01-06T07:44:15;6.50;87.40
22006;DHT22;11167;46.988;15.470;2024-01-06T07:46:18;6.50;87.50
22006;DHT22;11167;46.988;15.470;2024-01-06T07:48:40;6.50;87.30
22006;DHT22;11167;46.988;15.470;2024-01-06T07:50:41;6.50;87.30
22006;DHT22;11167;46.988;15.470;2024-01-06T07:52:42;6.50;87.40
22006;DHT22;11167;46.988;15.470;2024-01-06T07:54:43;6.50;87.50
22006;DHT22;11167;46.988;15.470;2024-01-06T07:56:45;6.50;87.50
22006;DHT22;11167;46.988;15.470;2024-01-06T07:58:46;6.50;87.50
22006;DHT22;11167;46.988;15.470;2024-01-06T08:00:47;6.50;87.50
22006;DHT22;11167;46.988;15.470;2024-01-06T08:02:48;6.50;87.40
22006;DHT22;11167;46.988;15.470;2024-01-06T08:04:50;6.50;87.50
22006;DHT22;11167;46.988;15.470;2024-01-06T08:06:51;6.60;87.60
22006;DHT22;11167;46.988;15.470;2024-01-06T08:08:52;6.50;87.50
22006;DHT22;11167;46.988;15.470;2024-01-06T08:10:53;6.50;87.50
22006;DHT22;11167;46.988;15.470;2024-01-06T08:12:54;6.50;87.50
22006;DHT22;11167;46.988;15.470;2024-01-06T08:14:56;6.50;88.30
22006;DHT22;11167;46.988;15.470;2024-01-06T08:16:57;6.50;87.40
22006;DHT22;11167;46.988;15.470;2024-01-06T08:18:58;6.50;87.50
22006;DHT22;11167;46.988;15.470;2024-01-06T08:20:59;6.50;87.50
22006;DHT22;11167;46.988;15.470;2024-01-06T08:23:01;6.50;87.40
22006;DHT22;11167;46.988;15.470;2024-01-06T08:25:02;6.50;87.50
22006;DHT22;11167;46.988;15.470;2024-01-06T08:27:04;6.50;87.50
22006;DHT22;11167;46.988;15.470;2024-01-06T08:29:05;6.50;88.20
22006;DHT22;11167;46.988;15.470;2024-01-06T08:31:07;6.60;87.60
22006;DHT22;11167;46.988;15.470;2024-01-06T08:33:08;6.60;87.90
22006;DHT22;11167;46.988;15.470;2024-01-06T08:35:09;6.60;87.50
22006;DHT22;11167;46.988;15.470;2024-01-06T08:37:11;6.60;87.50
22006;DHT22;11167;46.988;15.470;2024-01-06T08:39:12;6.60;87.50
22006;DHT22;11167;46.988;15.470;2024-01-06T08:41:14;6.60;87.50
22006;DHT22;11167;46.988;15.470;2024-01-06T08:43:15;6.60;87.50
22006;DHT22;11167;46.988;15.470;2024-01-06T08:45:16;6.60;87.60
22006;DHT22;11167;46.988;15.470;2024-01-06T08:47:17;6.60;87.60
22006;DHT22;11167;46.988;15.470;2024-01-06T08:49:18;6.60;87.60
22006;DHT22;11167;46.988;15.470;2024-01-06T08:51:20;6.60;88.40
22006;DHT22;11167;46.988;15.470;2024-01-06T08:53:21;6.60;87.50
22006;DHT22;11167;46.988;15.470;2024-01-06T08:55:22;6.60;87.50
22006;DHT22;11167;46.988;15.470;2024-01-06T08:57:24;6.60;87.50
22006;DHT22;11167;46.988;15.470;2024-01-06T08:59:25;6.60;87.60
22006;DHT22;11167;46.988;15.470;2024-01-06T09:01:26;6.60;87.60
22006;DHT22;11167;46.988;15.470;2024-01-06T09:03:27;6.60;87.60
22006;DHT22;11167;46.988;15.470;2024-01-06T09:05:29;6.60;87.50
22006;DHT22;11167;46.988;15.470;2024-01-06T09:07:30;6.60;87.50
22006;DHT22;11167;46.988;15.470;2024-01-06T09:09:31;6.60;87.60
22006;DHT22;11167;46.988;15.470;2024-01-06T09:11:32;6.60;87.50
22006;DHT22;11167;46.988;15.470;2024-01-06T09:13:33;6.60;87.60
22006;DHT22;11167;46.988;15.470;2024-01-06T09:15:34;6.60;87.50
22006;DHT22;11167;46.988;15.470;2024-01-06T09:17:36;6.60;87.70
22006;DHT22;11167;46.988;15.470;2024-01-06T09:19:37;6.60;87.50
22006;DHT22;11167;46.988;15.470;2024-01-06T09:21:38;6.60;88.10
22006;DHT22;11167;46.988;15.470;2024-01-06T09:23:39;6.60;87.70
22006;DHT22;11167;46.988;15.470;2024-01-06T09:25:40;6.60;87.60
22006;DHT22;11167;46.988;15.470;2024-01-06T09:27:41;6.60;87.60
22006;DHT22;11167;46.988;15.470;2024-01-06T09:29:43;6.60;87.60
22006;DHT22;11167;46.988;15.470;2024-01-06T09:31:44;6.60;87.50
22006;DHT22;11167;46.988;15.470;2024-01-06T09:33:45;6.60;87.70
22006;DHT22;11167;46.988;15.470;2024-01-06T09:35:47;6.60;87.60
22006;DHT22;11167;46.988;15.470;2024-01-06T09:37:48;6.70;87.70
22006;DHT22;11167;46.988;15.470;2024-01-06T09:39:49;6.60;87.60
22006;DHT22;11167;46.988;15.470;2024-01-06T09:41:50;6.70;87.60
22006;DHT22;11167;46.988;15.470;2024-01-06T09:43:52;6.70;88.50
22006;DHT22;11167;46.988;15.470;2024-01-06T09:46:01;6.70;87.60
22006;DHT22;11167;46.988;15.470;2024-01-06T09:48:12;6.70;87.70
22006;DHT22;11167;46.988;15.470;2024-01-06T09:50:14;6.70;87.70
22006;DHT22;11167;46.988;15.470;2024-01-06T09:52:21;6.70;87.70
22006;DHT22;11167;46.988;15.470;2024-01-06T09:54:23;6.70;87.70
22006;DHT22;11167;46.988;15.470;2024-01-06T09:56:29;6.70;87.70
22006;DHT22;11167;46.988;15.470;2024-01-06T09:58:30;6.70;87.70
22006;DHT22;11167;46.988;15.470;2024-01-06T10:00:34;6.70;87.70
22006;DHT22;11167;46.988;15.470;2024-01-06T10:02:36;6.70;87.70
22006;DHT22;11167;46.988;15.470;2024-01-06T10:04:37;6.70;87.70
22006;DHT22;11167;46.988;15.470;2024-01-06T10:06:39;6.70;87.80
22006;DHT22;11167;46.988;15.470;2024-01-06T10:08:48;6.70;87.80
22006;DHT22;11167;46.988;15.470;2024-01-06T10:10:50;6.70;87.70
22006;DHT22;11167;46.988;15.470;2024-01-06T10:12:53;6.70;87.70
22006;DHT22;11167;46.988;15.470;2024-01-06T10:14:55;6.70;87.70
22006;DHT22;11167;46.988;15.470;2024-01-06T10:16:56;6.70;87.70
22006;DHT22;11167;46.988;15.470;2024-01-06T10:18:57;6.70;87.70
22006;DHT22;11167;46.988;15.470;2024-01-06T10:20:59;6.70;87.80
22006;DHT22;11167;46.988;15.470;2024-01-06T10:23:05;6.70;87.00
22006;DHT22;11167;46.988;15.470;2024-01-06T10:25:08;6.70;87.80
22006;DHT22;11167;46.988;15.470;2024-01-06T10:27:09;6.70;87.90
22006;DHT22;11167;46.988;15.470;2024-01-06T10:29:10;6.70;87.80
22006;DHT22;11167;46.988;15.470;2024-01-06T10:31:12;6.70;87.90
22006;DHT22;11167;46.988;15.470;2024-01-06T10:33:14;6.80;87.90
22006;DHT22;11167;46.988;15.470;2024-01-06T10:35:16;6.70;87.70
22006;DHT22;11167;46.988;15.470;2024-01-06T10:37:18;6.80;87.90
22006;DHT22;11167;46.988;15.470;2024-01-06T10:39:20;6.80;87.80
22006;DHT22;11167;46.988;15.470;2024-01-06T10:41:23;6.80;87.90
22006;DHT22;11167;46.988;15.470;2024-01-06T10:43:26;6.80;88.80
22006;DHT22;11167;46.988;15.470;2024-01-06T10:45:29;6.80;87.90
22006;DHT22;11167;46.988;15.470;2024-01-06T10:47:32;6.80;87.80
22006;DHT22;11167;46.988;15.470;2024-01-06T10:49:35;6.80;87.90
22006;DHT22;11167;46.988;15.470;2024-01-06T10:51:38;6.80;87.90
22006;DHT22;11167;46.988;15.470;2024-01-06T10:53:43;6.80;87.90
22006;DHT22;11167;46.988;15.470;2024-01-06T10:55:45;6.80;87.90
22006;DHT22;11167;46.988;15.470;2024-01-06T10:57:46;6.80;87.90
22006;DHT22;11167;46.988;15.470;2024-01-06T10:59:50;6.80;87.90
22006;DHT22;11167;46.988;15.470;2024-01-06T11:01:52;6.80;88.10
22006;DHT22;11167;46.988;15.470;2024-01-06T11:03:55;6.80;87.80
22006;DHT22;11167;46.988;15.470;2024-01-06T11:05:58;6.80;87.90
22006;DHT22;11167;46.988;15.470;2024-01-06T11:07:59;6.80;87.90
22006;DHT22;11167;46.988;15.470;2024-01-06T11:10:18;6.80;88.60
22006;DHT22;11167;46.988;15.470;2024-01-06T11:12:18;6.90;87.90
22006;DHT22;11167;46.988;15.470;2024-01-06T11:14:22;6.90;87.90
22006;DHT22;11167;46.988;15.470;2024-01-06T11:16:35;6.90;87.90
22006;DHT22;11167;46.988;15.470;2024-01-06T11:18:38;6.90;88.00
22006;DHT22;11167;46.988;15.470;2024-01-06T11:21:02;6.90;87.90
22006;DHT22;11167;46.988;15.470;2024-01-06T11:22:45;6.90;87.90
22006;DHT22;11167;46.988;15.470;2024-01-06T11:24:51;6.90;87.90
22006;DHT22;11167;46.988;15.470;2024-01-06T11:26:56;6.90;88.10
22006;DHT22;11167;46.988;15.470;2024-01-06T11:29:00;6.90;87.90
22006;DHT22;11167;46.988;15.470;2024-01-06T11:31:10;6.90;87.90
22006;DHT22;11167;46.988;15.470;2024-01-06T11:33:11;6.90;87.90
22006;DHT22;11167;46.988;15.470;2024-01-06T11:35:15;6.90;88.10
22006;DHT22;11167;46.988;15.470;2024-01-06T11:39:44;6.90;88.00
22006;DHT22;11167;46.988;15.470;2024-01-06T11:41:51;6.90;88.00
22006;DHT22;11167;46.988;15.470;2024-01-06T11:43:52;6.90;88.80
22006;DHT22;11167;46.988;15.470;2024-01-06T11:45:56;6.90;88.00
22006;DHT22;11167;46.988;15.470;2024-01-06T11:48:02;6.90;88.10
22006;DHT22;11167;46.988;15.470;2024-01-06T11:50:04;6.90;88.10
22006;DHT22;11167;46.988;15.470;2024-01-06T11:52:06;6.90;88.00
22006;DHT22;11167;46.988;15.470;2024-01-06T11:54:09;7.00;88.00
22006;DHT22;11167;46.988;15.470;2024-01-06T11:56:10;7.00;88.10
22006;DHT22;11167;46.988;15.470;2024-01-06T11:58:11;7.00;88.00
22006;DHT22;11167;46.988;15.470;2024-01-06T12:00:13;7.00;88.10
22006;DHT22;11167;46.988;15.470;2024-01-06T12:02:17;7.00;88.00
22006;DHT22;11167;46.988;15.470;2024-01-06T12:04:20;7.00;88.00
22006;DHT22;11167;46.988;15.470;2024-01-06T12:06:23;7.00;88.00
22006;DHT22;11167;46.988;15.470;2024-01-06T12:08:24;7.00;88.00
22006;DHT22;11167;46.988;15.470;2024-01-06T12:10:27;7.00;88.10
22006;DHT22;11167;46.988;15.470;2024-01-06T12:12:28;7.00;88.10
22006;DHT22;11167;46.988;15.470;2024-01-06T12:14:29;7.00;88.00
22006;DHT22;11167;46.988;15.470;2024-01-06T12:16:30;7.00;88.00
22006;DHT22;11167;46.988;15.470;2024-01-06T12:18:33;7.00;88.10
22006;DHT22;11167;46.988;15.470;2024-01-06T12:20:34;7.00;88.00
22006;DHT22;11167;46.988;15.470;2024-01-06T12:22:36;7.10;88.20
22006;DHT22;11167;46.988;15.470;2024-01-06T12:24:37;7.10;88.20
22006;DHT22;11167;46.988;15.470;2024-01-06T12:26:43;7.10;88.20
22006;DHT22;11167;46.988;15.470;2024-01-06T12:28:45;7.10;88.10
22006;DHT22;11167;46.988;15.470;2024-01-06T12:30:46;7.10;88.10
22006;DHT22;11167;46.988;15.470;2024-01-06T12:32:49;7.10;88.50
22006;DHT22;11167;46.988;15.470;2024-01-06T12:34:50;7.10;88.20
22006;DHT22;11167;46.988;15.470;2024-01-06T12:36:53;7.10;88.10
22006;DHT22;11167;46.988;15.470;2024-01-06T12:38:57;7.10;88.10
22006;DHT22;11167;46.988;15.470;2024-01-06T12:40:59;7.10;88.10
22006;DHT22;11167;46.988;15.470;2024-01-06T12:43:02;7.10;88.10
22006;DHT22;11167;46.988;15.470;2024-01-06T12:45:05;7.10;88.10
22006;DHT22;11167;46.988;15.470;2024-01-06T12:47:07;7.10;88.10
22006;DHT22;11167;46.988;15.470;2024-01-06T12:49:08;7.10;88.10
22006;DHT22;11167;46.988;15.470;2024-01-06T12:51:10;7.10;88.20
22006;DHT22;11167;46.988;15.470;2024-01-06T12:53:11;7.10;88.20